sensor_id;sensor_type;location;lat;lon;timestamp;pressure;altitude;pressure_sealevel;temperature;humidity
72636;BME280;60679;48.888;15.544;2023-04-09T00:01:05;96701.63;;;3.09;72.15
72636;BME280;60679;48.888;15.544;2023-04-09T00:03:31;96706.63;;;3.12;72.11
72636;BME280;60679;48.888;15.544;2023-04-09T00:05:57;96707.28;;;3.14;72.17
72636;BME280;60679;48.888;15.544;2023-04-09T00:08:22;96702.78;;;3.15;72.06
72636;BME280;60679;48.888;15.544;2023-04-09T00:10:51;96703.63;;;3.15;72.23
72636;BME280;60679;48.888;15.544;2023-04-09T00:13:17;96703.44;;;3.17;72.05
72636;BME280;60679;48.888;15.544;2023-04-09T00:15:44;96700.78;;;3.17;72.15
72636;BME280;60679;48.888;15.544;2023-04-09T00:18:09;96702.63;;;3.16;72.26
72636;BME280;60679;48.888;15.544;2023-04-09T00:20:34;96693.94;;;3.14;72.30
72636;BME280;60679;48.888;15.544;2023-04-09T00:23:00;96698.63;;;3.12;72.16
72636;BME280;60679;48.888;15.544;2023-04-09T00:25:25;96698.31;;;3.07;72.12
72636;BME280;60679;48.888;15.544;2023-04-09T00:27:52;96699.63;;;3.03;72.31
72636;BME280;60679;48.888;15.544;2023-04-09T00:30:18;96701.97;;;2.98;72.12
72636;BME280;60679;48.888;15.544;2023-04-09T00:32:43;96699.13;;;2.91;72.20
72636;BME280;60679;48.888;15.544;2023-04-09T00:35:08;96700.59;;;2.86;72.30
72636;BME280;60679;48.888;15.544;2023-04-09T00:37:34;96696.13;;;2.86;72.45
72636;BME280;60679;48.888;15.544;2023-04-09T00:39:59;96701.78;;;2.91;72.28
72636;BME280;60679;48.888;15.544;2023-04-09T00:42:25;96695.28;;;2.94;72.26
72636;BME280;60679;48.888;15.544;2023-04-09T00:44:51;96700.28;;;2.97;72.36
72636;BME280;60679;48.888;15.544;2023-04-09T00:47:17;96700.13;;;2.99;72.26
72636;BME280;60679;48.888;15.544;2023-04-09T00:49:43;96698.31;;;2.99;72.26
72636;BME280;60679;48.888;15.544;2023-04-09T00:52:09;96697.47;;;2.99;72.05
72636;BME280;60679;48.888;15.544;2023-04-09T00:54:34;96699.94;;;3.00;72.36
72636;BME280;60679;48.888;15.544;2023-04-09T00:57:00;96702.63;;;3.00;72.31
72636;BME280;60679;48.888;15.544;2023-04-09T00:59:25;96703.47;;;3.01;72.40
72636;BME280;60679;48.888;15.544;2023-04-09T01:01:51;96700.78;;;3.01;72.35
72636;BME280;60679;48.888;15.544;2023-04-09T01:04:16;96696.44;;;3.00;72.36
72636;BME280;60679;48.888;15.544;2023-04-09T01:06:51;96705.28;;;3.00;72.37
72636;BME280;60679;48.888;15.544;2023-04-09T01:09:29;96698.31;;;2.99;72.39
72636;BME280;60679;48.888;15.544;2023-04-09T01:12:28;96704.44;;;3.00;72.48
72636;BME280;60679;48.888;15.544;2023-04-09T01:15:09;96696.44;;;3.00;72.46
72636;BME280;60679;48.888;15.544;2023-04-09T01:17:52;96700.13;;;2.99;72.37
72636;BME280;60679;48.888;15.544;2023-04-09T01:20:29;96705.47;;;2.99;72.53
72636;BME280;60679;48.888;15.544;2023-04-09T01:23:13;96709.97;;;2.98;72.38
72636;BME280;60679;48.888;15.544;2023-04-09T01:26:00;96705.47;;;2.99;72.56
72636;BME280;60679;48.888;15.544;2023-04-09T01:28:42;96707.13;;;3.00;72.61
72636;BME280;60679;48.888;15.544;2023-04-09T01:31:13;96709.13;;;2.98;72.50
72636;BME280;60679;48.888;15.544;2023-04-09T01:33:43;96705.09;;;2.93;72.54
72636;BME280;60679;48.888;15.544;2023-04-09T01:36:09;96704.31;;;2.93;72.41
72636;BME280;60679;48.888;15.544;2023-04-09T01:38:36;96705.78;;;2.87;72.42
72636;BME280;60679;48.888;15.544;2023-04-09T01:41:05;96704.78;;;2.80;72.52
72636;BME280;60679;48.888;15.544;2023-04-09T01:43:32;96704.44;;;2.75;72.64
72636;BME280;60679;48.888;15.544;2023-04-09T01:45:59;96705.44;;;2.74;72.64
72636;BME280;60679;48.888;15.544;2023-04-09T01:48:26;96707.25;;;2.74;72.59
72636;BME280;60679;48.888;15.544;2023-04-09T01:50:53;96706.44;;;2.73;72.55
72636;BME280;60679;48.888;15.544;2023-04-09T01:53:18;96708.41;;;2.71;72.67
72636;BME280;60679;48.888;15.544;2023-04-09T01:55:44;96705.59;;;2.73;72.73
72636;BME280;60679;48.888;15.544;2023-04-09T01:58:10;96709.91;;;2.74;72.65
72636;BME280;60679;48.888;15.544;2023-04-09T02:00:44;96710.75;;;2.74;72.58
72636;BME280;60679;48.888;15.544;2023-04-09T02:03:24;96711.44;;;2.76;72.71
72636;BME280;60679;48.888;15.544;2023-04-09T02:06:06;96712.78;;;2.80;72.67
72636;BME280;60679;48.888;15.544;2023-04-09T02:08:34;96705.44;;;2.82;72.72
72636;BME280;60679;48.888;15.544;2023-04-09T02:11:03;96705.94;;;2.86;72.57
72636;BME280;60679;48.888;15.544;2023-04-09T02:13:30;96701.44;;;2.86;72.58
72636;BME280;60679;48.888;15.544;2023-04-09T02:15:58;96708.28;;;2.89;72.62
72636;BME280;60679;48.888;15.544;2023-04-09T02:18:25;96708.94;;;2.91;72.97
72636;BME280;60679;48.888;15.544;2023-04-09T02:20:52;96702.81;;;2.90;72.69
72636;BME280;60679;48.888;15.544;2023-04-09T02:23:18;96696.63;;;2.90;72.70
72636;BME280;60679;48.888;15.544;2023-04-09T02:25:44;96694.81;;;2.90;72.72
72636;BME280;60679;48.888;15.544;2023-04-09T02:28:09;96699.13;;;2.91;72.71
72636;BME280;60679;48.888;15.544;2023-04-09T02:30:35;96700.13;;;2.90;72.72
72636;BME280;60679;48.888;15.544;2023-04-09T02:33:00;96694.81;;;2.90;72.87
72636;BME280;60679;48.888;15.544;2023-04-09T02:35:26;96700.78;;;2.92;72.86
72636;BME280;60679;48.888;15.544;2023-04-09T02:37:51;96698.97;;;2.93;72.74
72636;BME280;60679;48.888;15.544;2023-04-09T02:40:16;96705.09;;;2.93;72.69
72636;BME280;60679;48.888;15.544;2023-04-09T02:42:42;96699.78;;;2.93;72.27
72636;BME280;60679;48.888;15.544;2023-04-09T02:45:07;96699.78;;;2.93;72.67
72636;BME280;60679;48.888;15.544;2023-04-09T02:47:33;96705.28;;;2.92;72.79
72636;BME280;60679;48.888;15.544;2023-04-09T02:49:58;96703.47;;;2.92;72.97
72636;BME280;60679;48.888;15.544;2023-04-09T02:52:23;96700.94;;;2.91;72.72
72636;BME280;60679;48.888;15.544;2023-04-09T02:54:51;96706.47;;;2.89;72.85
72636;BME280;60679;48.888;15.544;2023-04-09T02:57:16;96703.78;;;2.89;72.75
72636;BME280;60679;48.888;15.544;2023-04-09T02:59:42;96706.59;;;2.88;72.83
72636;BME280;60679;48.888;15.544;2023-04-09T03:02:07;96694.09;;;2.88;72.88
72636;BME280;60679;48.888;15.544;2023-04-09T03:04:33;96698.47;;;2.89;72.71
72636;BME280;60679;48.888;15.544;2023-04-09T03:06:58;96697.94;;;2.86;72.39
72636;BME280;60679;48.888;15.544;2023-04-09T03:09:23;96697.09;;;2.85;72.85
72636;BME280;60679;48.888;15.544;2023-04-09T03:11:48;96703.47;;;2.84;72.79
72636;BME280;60679;48.888;15.544;2023-04-09T03:14:14;96699.13;;;2.83;72.83
72636;BME280;60679;48.888;15.544;2023-04-09T03:16:40;96698.28;;;2.83;72.84
72636;BME280;60679;48.888;15.544;2023-04-09T03:19:05;96700.94;;;2.83;72.89
72636;BME280;60679;48.888;15.544;2023-04-09T03:21:30;96701.97;;;2.82;72.74
72636;BME280;60679;48.888;15.544;2023-04-09T03:23:57;96701.25;;;2.80;72.91
72636;BME280;60679;48.888;15.544;2023-04-09T03:26:22;96694.28;;;2.79;72.77
72636;BME280;60679;48.888;15.544;2023-04-09T03:28:47;96696.25;;;2.77;72.94
72636;BME280;60679;48.888;15.544;2023-04-09T03:31:13;96695.44;;;2.76;73.02
72636;BME280;60679;48.888;15.544;2023-04-09T03:33:38;96692.94;;;2.75;72.92
72636;BME280;60679;48.888;15.544;2023-04-09T03:36:04;96692.09;;;2.74;72.68
72636;BME280;60679;48.888;15.544;2023-04-09T03:38:30;96697.28;;;2.76;72.90
72636;BME280;60679;48.888;15.544;2023-04-09T03:40:55;96699.09;;;2.75;73.03
72636;BME280;60679;48.888;15.544;2023-04-09T03:43:21;96691.44;;;2.72;72.88
72636;BME280;60679;48.888;15.544;2023-04-09T03:45:46;96688.59;;;2.74;72.94
72636;BME280;60679;48.888;15.544;2023-04-09T03:48:11;96698.28;;;2.75;73.01
72636;BME280;60679;48.888;15.544;2023-04-09T03:50:38;96696.59;;;2.74;72.93
72636;BME280;60679;48.888;15.544;2023-04-09T03:53:04;96692.28;;;2.73;73.06
72636;BME280;60679;48.888;15.544;2023-04-09T03:55:30;96699.44;;;2.72;73.04
72636;BME280;60679;48.888;15.544;2023-04-09T03:57:55;96707.44;;;2.72;73.00
72636;BME280;60679;48.888;15.544;2023-04-09T04:00:21;96712.75;;;2.72;73.03
72636;BME280;60679;48.888;15.544;2023-04-09T04:02:46;96709.91;;;2.74;73.00
72636;BME280;60679;48.888;15.544;2023-04-09T04:05:12;96716.78;;;2.76;72.94
72636;BME280;60679;48.888;15.544;2023-04-09T04:07:37;96714.59;;;2.80;73.08
72636;BME280;60679;48.888;15.544;2023-04-09T04:10:05;96719.59;;;2.83;72.97
72636;BME280;60679;48.888;15.544;2023-04-09T04:12:30;96723.94;;;2.84;73.12
72636;BME280;60679;48.888;15.544;2023-04-09T04:14:56;96721.94;;;2.86;73.11
72636;BME280;60679;48.888;15.544;2023-04-09T04:17:22;96723.63;;;2.87;72.94
72636;BME280;60679;48.888;15.544;2023-04-09T04:19:47;96720.78;;;2.88;73.03
72636;BME280;60679;48.888;15.544;2023-04-09T04:22:12;96727.59;;;2.91;72.99
72636;BME280;60679;48.888;15.544;2023-04-09T04:24:38;96729.94;;;2.94;73.00
72636;BME280;60679;48.888;15.544;2023-04-09T04:27:03;96726.13;;;2.97;72.97
72636;BME280;60679;48.888;15.544;2023-04-09T04:29:29;96726.63;;;3.00;72.91
72636;BME280;60679;48.888;15.544;2023-04-09T04:31:54;96730.63;;;3.04;72.93
72636;BME280;60679;48.888;15.544;2023-04-09T04:34:20;96728.81;;;3.05;72.84
72636;BME280;60679;48.888;15.544;2023-04-09T04:36:45;96737.28;;;3.08;72.86
72636;BME280;60679;48.888;15.544;2023-04-09T04:39:11;96728.13;;;3.11;72.57
72636;BME280;60679;48.888;15.544;2023-04-09T04:41:36;96736.63;;;3.14;72.65
72636;BME280;60679;48.888;15.544;2023-04-09T04:44:02;96740.47;;;3.20;72.56
72636;BME280;60679;48.888;15.544;2023-04-09T04:46:30;96739.66;;;3.27;72.65
72636;BME280;60679;48.888;15.544;2023-04-09T04:48:55;96738.63;;;3.36;72.42
72636;BME280;60679;48.888;15.544;2023-04-09T04:51:20;96740.31;;;3.45;72.32
72636;BME280;60679;48.888;15.544;2023-04-09T04:53:46;96740.78;;;3.57;72.05
72636;BME280;60679;48.888;15.544;2023-04-09T04:56:14;96733.44;;;3.67;71.91
72636;BME280;60679;48.888;15.544;2023-04-09T04:58:41;96741.94;;;3.71;71.82
72636;BME280;60679;48.888;15.544;2023-04-09T05:01:06;96745.63;;;3.78;71.86
72636;BME280;60679;48.888;15.544;2023-04-09T05:03:32;96740.75;;;3.81;71.93
72636;BME280;60679;48.888;15.544;2023-04-09T05:05:57;96747.59;;;3.92;71.74
72636;BME280;60679;48.888;15.544;2023-04-09T05:08:23;96743.53;;;4.04;71.54
72636;BME280;60679;48.888;15.544;2023-04-09T05:10:48;96740.13;;;4.18;71.27
72636;BME280;60679;48.888;15.544;2023-04-09T05:13:15;96740.09;;;4.34;70.84
72636;BME280;60679;48.888;15.544;2023-04-09T05:15:43;96738.00;;;4.52;70.70
72636;BME280;60679;48.888;15.544;2023-04-09T05:18:09;96746.94;;;4.68;70.40
72636;BME280;60679;48.888;15.544;2023-04-09T05:20:34;96743.09;;;4.70;70.48
72636;BME280;60679;48.888;15.544;2023-04-09T05:22:59;96752.75;;;4.79;70.45
72636;BME280;60679;48.888;15.544;2023-04-09T05:25:25;96748.00;;;4.89;70.52
72636;BME280;60679;48.888;15.544;2023-04-09T05:27:50;96749.25;;;5.01;70.27
72636;BME280;60679;48.888;15.544;2023-04-09T05:30:16;96757.38;;;5.16;70.03
72636;BME280;60679;48.888;15.544;2023-04-09T05:32:41;96752.44;;;5.28;69.63
72636;BME280;60679;48.888;15.544;2023-04-09T05:35:07;96758.66;;;5.43;69.59
72636;BME280;60679;48.888;15.544;2023-04-09T05:37:32;96767.16;;;5.46;69.37
72636;BME280;60679;48.888;15.544;2023-04-09T05:39:58;96760.19;;;5.60;69.32
72636;BME280;60679;48.888;15.544;2023-04-09T05:42:23;96757.47;;;5.82;68.81
72636;BME280;60679;48.888;15.544;2023-04-09T05:44:49;96756.06;;;6.09;68.13
72636;BME280;60679;48.888;15.544;2023-04-09T05:47:15;96760.31;;;6.18;68.37
72636;BME280;60679;48.888;15.544;2023-04-09T05:49:40;96770.72;;;5.99;68.81
72636;BME280;60679;48.888;15.544;2023-04-09T05:52:06;96779.25;;;5.79;69.24
72636;BME280;60679;48.888;15.544;2023-04-09T05:54:31;96774.34;;;5.68;69.31
72636;BME280;60679;48.888;15.544;2023-04-09T05:56:56;96769.78;;;5.54;69.11
72636;BME280;60679;48.888;15.544;2023-04-09T05:59:22;96775.56;;;5.43;69.57
72636;BME280;60679;48.888;15.544;2023-04-09T06:01:47;96774.72;;;5.43;69.45
72636;BME280;60679;48.888;15.544;2023-04-09T06:04:15;96777.53;;;5.49;69.24
72636;BME280;60679;48.888;15.544;2023-04-09T06:06:41;96776.75;;;5.41;69.45
72636;BME280;60679;48.888;15.544;2023-04-09T06:09:06;96779.00;;;5.29;70.00
72636;BME280;60679;48.888;15.544;2023-04-09T06:11:31;96784.13;;;5.16;70.08
72636;BME280;60679;48.888;15.544;2023-04-09T06:13:58;96785.78;;;5.17;70.07
72636;BME280;60679;48.888;15.544;2023-04-09T06:16:24;96785.06;;;5.23;69.80
72636;BME280;60679;48.888;15.544;2023-04-09T06:18:49;96785.69;;;5.56;69.44
72636;BME280;60679;48.888;15.544;2023-04-09T06:21:18;96782.03;;;6.09;68.58
72636;BME280;60679;48.888;15.544;2023-04-09T06:23:44;96786.94;;;6.49;67.82
72636;BME280;60679;48.888;15.544;2023-04-09T06:26:12;96789.44;;;6.80;67.48
72636;BME280;60679;48.888;15.544;2023-04-09T06:28:38;96783.06;;;7.17;66.57
72636;BME280;60679;48.888;15.544;2023-04-09T06:31:03;96786.72;;;7.30;66.49
72636;BME280;60679;48.888;15.544;2023-04-09T06:33:28;96789.03;;;7.33;66.47
72636;BME280;60679;48.888;15.544;2023-04-09T06:35:54;96786.06;;;7.28;66.49
72636;BME280;60679;48.888;15.544;2023-04-09T06:38:22;96793.59;;;7.18;66.92
72636;BME280;60679;48.888;15.544;2023-04-09T06:40:48;96799.09;;;7.10;66.79
72636;BME280;60679;48.888;15.544;2023-04-09T06:43:13;96804.97;;;7.20;66.41
72636;BME280;60679;48.888;15.544;2023-04-09T06:45:38;96801.25;;;7.36;66.19
72636;BME280;60679;48.888;15.544;2023-04-09T06:48:04;96805.03;;;7.41;65.83
72636;BME280;60679;48.888;15.544;2023-04-09T06:50:29;96800.34;;;7.50;65.72
72636;BME280;60679;48.888;15.544;2023-04-09T06:52:56;96800.69;;;7.62;65.59
72636;BME280;60679;48.888;15.544;2023-04-09T06:55:22;96807.47;;;7.79;65.46
72636;BME280;60679;48.888;15.544;2023-04-09T06:57:47;96807.75;;;7.90;65.13
72636;BME280;60679;48.888;15.544;2023-04-09T07:00:13;96801.19;;;7.93;64.76
72636;BME280;60679;48.888;15.544;2023-04-09T07:02:39;96806.97;;;7.96;65.00
72636;BME280;60679;48.888;15.544;2023-04-09T07:05:04;96800.25;;;8.07;64.95
72636;BME280;60679;48.888;15.544;2023-04-09T07:07:30;96811.72;;;8.16;64.38
72636;BME280;60679;48.888;15.544;2023-04-09T07:09:55;96809.97;;;8.29;64.36
72636;BME280;60679;48.888;15.544;2023-04-09T07:12:27;96815.44;;;8.42;64.28
72636;BME280;60679;48.888;15.544;2023-04-09T07:14:59;96821.25;;;8.46;64.22
72636;BME280;60679;48.888;15.544;2023-04-09T07:17:25;96822.66;;;8.42;64.29
72636;BME280;60679;48.888;15.544;2023-04-09T07:19:50;96824.38;;;8.77;63.91
72636;BME280;60679;48.888;15.544;2023-04-09T07:22:17;96819.00;;;9.38;63.00
72636;BME280;60679;48.888;15.544;2023-04-09T07:24:42;96826.00;;;9.19;63.60
72636;BME280;60679;48.888;15.544;2023-04-09T07:27:08;96829.28;;;9.08;63.62
72636;BME280;60679;48.888;15.544;2023-04-09T07:29:34;96826.53;;;9.01;63.48
72636;BME280;60679;48.888;15.544;2023-04-09T07:31:59;96826.31;;;8.62;64.19
72636;BME280;60679;48.888;15.544;2023-04-09T07:34:27;96830.69;;;8.63;64.53
72636;BME280;60679;48.888;15.544;2023-04-09T07:36:56;96826.00;;;8.78;63.99
72636;BME280;60679;48.888;15.544;2023-04-09T07:39:21;96823.41;;;8.91;63.86
72636;BME280;60679;48.888;15.544;2023-04-09T07:41:47;96825.59;;;10.09;61.93
72636;BME280;60679;48.888;15.544;2023-04-09T07:44:13;96823.72;;;10.68;61.30
72636;BME280;60679;48.888;15.544;2023-04-09T07:46:38;96817.72;;;10.66;61.56
72636;BME280;60679;48.888;15.544;2023-04-09T07:49:04;96822.06;;;10.61;61.46
72636;BME280;60679;48.888;15.544;2023-04-09T07:51:30;96826.88;;;10.13;62.41
72636;BME280;60679;48.888;15.544;2023-04-09T07:53:55;96828.00;;;9.58;63.42
72636;BME280;60679;48.888;15.544;2023-04-09T07:56:20;96827.38;;;9.02;64.35
72636;BME280;60679;48.888;15.544;2023-04-09T07:58:46;96830.84;;;8.55;65.04
72636;BME280;60679;48.888;15.544;2023-04-09T08:01:13;96827.69;;;8.24;65.58
72636;BME280;60679;48.888;15.544;2023-04-09T08:03:38;96832.47;;;8.00;66.04
72636;BME280;60679;48.888;15.544;2023-04-09T08:06:04;96834.53;;;7.77;66.37
72636;BME280;60679;48.888;15.544;2023-04-09T08:08:30;96841.13;;;7.53;66.74
72636;BME280;60679;48.888;15.544;2023-04-09T08:10:55;96849.75;;;7.34;67.07
72636;BME280;60679;48.888;15.544;2023-04-09T08:13:24;96843.50;;;7.27;67.29
72636;BME280;60679;48.888;15.544;2023-04-09T08:15:53;96845.25;;;7.20;67.23
72636;BME280;60679;48.888;15.544;2023-04-09T08:18:18;96847.09;;;7.20;66.71
72636;BME280;60679;48.888;15.544;2023-04-09T08:20:43;96840.63;;;7.29;66.49
72636;BME280;60679;48.888;15.544;2023-04-09T08:23:12;96842.09;;;7.67;66.08
72636;BME280;60679;48.888;15.544;2023-04-09T08:25:37;96841.63;;;8.06;65.49
72636;BME280;60679;48.888;15.544;2023-04-09T08:28:03;96846.16;;;8.27;65.06
72636;BME280;60679;48.888;15.544;2023-04-09T08:30:29;96846.91;;;8.21;65.31
72636;BME280;60679;48.888;15.544;2023-04-09T08:32:58;96850.38;;;8.14;65.34
72636;BME280;60679;48.888;15.544;2023-04-09T08:35:23;96851.47;;;8.20;65.49
72636;BME280;60679;48.888;15.544;2023-04-09T08:37:49;96841.50;;;8.42;64.99
72636;BME280;60679;48.888;15.544;2023-04-09T08:40:14;96858.69;;;8.68;64.03
72636;BME280;60679;48.888;15.544;2023-04-09T08:42:43;96853.75;;;8.79;64.49
72636;BME280;60679;48.888;15.544;2023-04-09T08:45:12;96854.56;;;8.73;64.49
72636;BME280;60679;48.888;15.544;2023-04-09T08:47:40;96863.22;;;8.68;64.60
72636;BME280;60679;48.888;15.544;2023-04-09T08:50:06;96861.16;;;8.70;64.83
72636;BME280;60679;48.888;15.544;2023-04-09T08:52:33;96862.47;;;8.81;64.54
72636;BME280;60679;48.888;15.544;2023-04-09T08:54:58;96858.13;;;9.14;63.66
72636;BME280;60679;48.888;15.544;2023-04-09T08:57:24;96860.84;;;9.27;63.54
72636;BME280;60679;48.888;15.544;2023-04-09T08:59:49;96864.00;;;9.31;63.31
72636;BME280;60679;48.888;15.544;2023-04-09T09:02:14;96865.06;;;9.43;63.51
72636;BME280;60679;48.888;15.544;2023-04-09T09:04:45;96861.03;;;9.79;62.73
72636;BME280;60679;48.888;15.544;2023-04-09T09:07:10;96865.66;;;9.99;62.74
72636;BME280;60679;48.888;15.544;2023-04-09T09:09:53;96863.34;;;10.02;62.71
72636;BME280;60679;48.888;15.544;2023-04-09T09:12:34;96869.53;;;9.76;63.32
72636;BME280;60679;48.888;15.544;2023-04-09T09:14:59;96866.16;;;9.55;63.77
72636;BME280;60679;48.888;15.544;2023-04-09T09:17:25;96869.63;;;9.42;63.98
72636;BME280;60679;48.888;15.544;2023-04-09T09:19:50;96865.81;;;9.17;64.21
72636;BME280;60679;48.888;15.544;2023-04-09T09:22:16;96867.00;;;9.14;64.46
72636;BME280;60679;48.888;15.544;2023-04-09T09:24:45;96866.69;;;9.37;64.11
72636;BME280;60679;48.888;15.544;2023-04-09T09:27:50;96868.53;;;9.84;63.10
72636;BME280;60679;48.888;15.544;2023-04-09T09:30:25;96875.03;;;10.29;62.18
72636;BME280;60679;48.888;15.544;2023-04-09T09:32:52;96876.72;;;10.30;62.13
72636;BME280;60679;48.888;15.544;2023-04-09T09:35:19;96876.22;;;10.00;62.57
72636;BME280;60679;48.888;15.544;2023-04-09T09:37:44;96876.63;;;9.84;63.06
72636;BME280;60679;48.888;15.544;2023-04-09T09:40:10;96875.94;;;9.62;63.43
72636;BME280;60679;48.888;15.544;2023-04-09T09:42:54;96879.19;;;9.45;63.52
72636;BME280;60679;48.888;15.544;2023-04-09T09:45:21;96876.34;;;9.59;63.40
72636;BME280;60679;48.888;15.544;2023-04-09T09:47:47;96877.53;;;9.50;63.14
72636;BME280;60679;48.888;15.544;2023-04-09T09:50:16;96876.28;;;9.40;63.40
72636;BME280;60679;48.888;15.544;2023-04-09T09:52:44;96875.94;;;9.69;63.31
72636;BME280;60679;48.888;15.544;2023-04-09T09:55:12;96875.78;;;9.97;62.91
72636;BME280;60679;48.888;15.544;2023-04-09T09:57:41;96870.22;;;10.11;62.49
72636;BME280;60679;48.888;15.544;2023-04-09T10:00:10;96868.41;;;10.38;61.79
72636;BME280;60679;48.888;15.544;2023-04-09T10:02:43;96877.13;;;10.53;61.97
72636;BME280;60679;48.888;15.544;2023-04-09T10:05:12;96872.34;;;10.75;61.79
72636;BME280;60679;48.888;15.544;2023-04-09T10:07:39;96875.63;;;10.90;61.42
72636;BME280;60679;48.888;15.544;2023-04-09T10:10:06;96870.22;;;10.96;60.70
72636;BME280;60679;48.888;15.544;2023-04-09T10:12:32;96875.44;;;11.49;59.71
72636;BME280;60679;48.888;15.544;2023-04-09T10:14:59;96862.31;;;11.97;59.13
72636;BME280;60679;48.888;15.544;2023-04-09T10:17:29;96867.06;;;12.64;58.14
72636;BME280;60679;48.888;15.544;2023-04-09T10:20:03;96855.59;;;13.05;57.59
72636;BME280;60679;48.888;15.544;2023-04-09T10:22:31;96859.13;;;12.62;58.57
72636;BME280;60679;48.888;15.544;2023-04-09T10:24:58;96858.19;;;11.94;60.25
72636;BME280;60679;48.888;15.544;2023-04-09T10:27:25;96862.41;;;11.33;61.42
72636;BME280;60679;48.888;15.544;2023-04-09T10:29:51;96867.31;;;10.91;61.65
72636;BME280;60679;48.888;15.544;2023-04-09T10:32:18;96869.38;;;10.89;61.46
72636;BME280;60679;48.888;15.544;2023-04-09T10:34:48;96870.03;;;10.65;61.34
72636;BME280;60679;48.888;15.544;2023-04-09T10:37:25;96860.31;;;10.18;62.34
72636;BME280;60679;48.888;15.544;2023-04-09T10:39:51;96864.56;;;9.86;63.00
72636;BME280;60679;48.888;15.544;2023-04-09T10:42:18;96867.91;;;9.88;63.54
72636;BME280;60679;48.888;15.544;2023-04-09T10:45:08;96865.03;;;10.03;63.40
72636;BME280;60679;48.888;15.544;2023-04-09T10:47:36;96868.16;;;10.13;63.32
72636;BME280;60679;48.888;15.544;2023-04-09T10:52:40;96871.59;;;11.25;60.74
72636;BME280;60679;48.888;15.544;2023-04-09T10:55:06;96855.38;;;11.25;60.63
72636;BME280;60679;48.888;15.544;2023-04-09T10:57:32;96853.44;;;10.62;62.38
72636;BME280;60679;48.888;15.544;2023-04-09T10:59:58;96857.13;;;9.95;63.36
72636;BME280;60679;48.888;15.544;2023-04-09T11:07:53;96861.13;;;9.39;64.59
72636;BME280;60679;48.888;15.544;2023-04-09T11:10:21;96861.47;;;9.22;64.91
72636;BME280;60679;48.888;15.544;2023-04-09T11:12:49;96868.13;;;8.92;65.50
72636;BME280;60679;48.888;15.544;2023-04-09T11:15:16;96865.22;;;8.87;65.96
72636;BME280;60679;48.888;15.544;2023-04-09T11:17:42;96859.66;;;8.95;65.83
72636;BME280;60679;48.888;15.544;2023-04-09T11:20:09;96863.03;;;9.04;65.55
72636;BME280;60679;48.888;15.544;2023-04-09T11:22:35;96863.25;;;9.09;65.49
72636;BME280;60679;48.888;15.544;2023-04-09T11:25:00;96860.41;;;9.17;65.42
72636;BME280;60679;48.888;15.544;2023-04-09T11:27:25;96863.78;;;9.32;64.90
72636;BME280;60679;48.888;15.544;2023-04-09T11:29:54;96864.84;;;9.31;64.58
72636;BME280;60679;48.888;15.544;2023-04-09T11:32:20;96854.22;;;9.29;65.04
72636;BME280;60679;48.888;15.544;2023-04-09T11:34:45;96861.72;;;9.34;64.76
72636;BME280;60679;48.888;15.544;2023-04-09T11:37:15;96860.09;;;9.46;64.42
72636;BME280;60679;48.888;15.544;2023-04-09T11:39:44;96852.22;;;9.51;64.31
72636;BME280;60679;48.888;15.544;2023-04-09T11:42:13;96850.59;;;9.57;64.46
72636;BME280;60679;48.888;15.544;2023-04-09T11:44:39;96854.97;;;9.58;64.41
72636;BME280;60679;48.888;15.544;2023-04-09T11:47:05;96855.34;;;9.48;64.46
72636;BME280;60679;48.888;15.544;2023-04-09T11:49:31;96858.06;;;9.48;64.82
72636;BME280;60679;48.888;15.544;2023-04-09T11:51:57;96855.09;;;9.43;65.06
72636;BME280;60679;48.888;15.544;2023-04-09T11:54:30;96856.16;;;9.42;64.95
72636;BME280;60679;48.888;15.544;2023-04-09T11:57:02;96855.94;;;9.44;64.58
72636;BME280;60679;48.888;15.544;2023-04-09T11:59:28;96852.47;;;9.56;63.99
72636;BME280;60679;48.888;15.544;2023-04-09T12:01:56;96845.97;;;10.18;62.10
72636;BME280;60679;48.888;15.544;2023-04-09T12:04:22;96851.34;;;11.47;59.98
72636;BME280;60679;48.888;15.544;2023-04-09T12:06:47;96844.75;;;11.81;59.84
72636;BME280;60679;48.888;15.544;2023-04-09T12:09:13;96844.47;;;11.89;59.68
72636;BME280;60679;48.888;15.544;2023-04-09T12:11:42;96842.69;;;11.77;59.87
72636;BME280;60679;48.888;15.544;2023-04-09T12:14:15;96856.09;;;11.96;59.99
72636;BME280;60679;48.888;15.544;2023-04-09T12:16:42;96852.34;;;11.97;59.22
72636;BME280;60679;48.888;15.544;2023-04-09T12:19:12;96856.03;;;11.65;59.68
72636;BME280;60679;48.888;15.544;2023-04-09T12:21:51;96854.09;;;11.34;60.27
72636;BME280;60679;48.888;15.544;2023-04-09T12:24:18;96856.66;;;11.10;61.01
72636;BME280;60679;48.888;15.544;2023-04-09T12:26:44;96853.19;;;10.76;61.74
72636;BME280;60679;48.888;15.544;2023-04-09T12:29:10;96864.66;;;10.39;62.46
72636;BME280;60679;48.888;15.544;2023-04-09T12:31:35;96867.16;;;10.21;62.79
72636;BME280;60679;48.888;15.544;2023-04-09T12:34:01;96860.50;;;10.17;62.93
72636;BME280;60679;48.888;15.544;2023-04-09T12:36:26;96852.78;;;10.01;62.79
72636;BME280;60679;48.888;15.544;2023-04-09T12:38:52;96854.59;;;9.80;62.97
72636;BME280;60679;48.888;15.544;2023-04-09T12:41:17;96850.44;;;9.78;63.20
72636;BME280;60679;48.888;15.544;2023-04-09T12:43:42;96849.41;;;9.85;62.92
72636;BME280;60679;48.888;15.544;2023-04-09T12:46:08;96839.47;;;9.99;62.78
72636;BME280;60679;48.888;15.544;2023-04-09T12:48:34;96838.09;;;10.29;62.68
72636;BME280;60679;48.888;15.544;2023-04-09T12:50:59;96836.19;;;10.69;61.96
72636;BME280;60679;48.888;15.544;2023-04-09T12:53:25;96833.56;;;11.20;60.91
72636;BME280;60679;48.888;15.544;2023-04-09T12:55:50;96835.19;;;11.34;61.37
72636;BME280;60679;48.888;15.544;2023-04-09T12:58:16;96832.91;;;11.31;61.20
72636;BME280;60679;48.888;15.544;2023-04-09T13:00:41;96840.66;;;11.15;61.67
72636;BME280;60679;48.888;15.544;2023-04-09T13:03:07;96838.81;;;10.95;62.16
72636;BME280;60679;48.888;15.544;2023-04-09T13:05:33;96839.09;;;10.61;62.62